Terminal Aerodrome Forecast
Issued by NWS Wichita, KS

Home | Current Version | Previous Version | Text Only | Print | Product List | Glossary Off
Versions: 1 2 3 4 5 6 7 8 9 10 11 12 13 14 15 16

000
FTUS43 KICT 291120
TAFICT
TAF
KICT 291120Z 2912/3012 02013KT P6SM VCTS SCT020 BKN070CB
      TEMPO 2913/2915 3SM TSRA BKN020CB
     FM291600 05014KT P6SM BKN080
     FM292000 06013KT P6SM VCSH SCT080=

USA.gov is the U.S. government's official web portal to all federal, state and local government web resources and services.